createdAt,value
2017-06-23T00:02:21.379Z,99.90
2017-06-23T00:04:49.030Z,99.90
2017-06-23T00:07:16.666Z,99.90
2017-06-23T00:09:44.341Z,99.90
2017-06-23T00:12:11.975Z,99.90
2017-06-23T00:14:39.656Z,99.90
2017-06-23T00:17:07.301Z,99.90
2017-06-23T00:19:36.126Z,99.90
2017-06-23T00:22:03.748Z,99.90
2017-06-23T00:24:32.280Z,99.90
2017-06-23T00:27:00.706Z,99.90
2017-06-23T00:29:28.347Z,99.90
2017-06-23T00:31:56.011Z,99.90
2017-06-23T00:34:23.645Z,99.90
2017-06-23T00:36:51.702Z,99.90
2017-06-23T00:39:19.350Z,99.90
2017-06-23T00:41:46.997Z,99.90
2017-06-23T00:44:14.664Z,99.90
2017-06-23T00:46:42.299Z,99.90
2017-06-23T00:49:09.965Z,99.90
2017-06-23T00:51:37.599Z,99.90
2017-06-23T00:54:05.632Z,99.90
2017-06-23T00:56:33.298Z,99.90
2017-06-23T00:59:00.941Z,99.90
2017-06-23T01:01:28.632Z,99.90
2017-06-23T01:03:56.300Z,99.90
2017-06-23T01:06:23.999Z,99.90
2017-06-23T01:08:51.647Z,99.90
2017-06-23T01:11:19.659Z,99.90
2017-06-23T01:13:47.308Z,99.90
2017-06-23T01:16:14.961Z,99.90
2017-06-23T01:18:42.641Z,99.90
2017-06-23T01:21:10.290Z,99.90
2017-06-23T01:23:37.966Z,99.90
2017-06-23T01:26:05.608Z,99.90
2017-06-23T01:28:33.251Z,99.90
2017-06-23T01:31:00.934Z,99.90
2017-06-23T01:33:28.583Z,99.90
2017-06-23T01:35:56.246Z,99.90
2017-06-23T01:38:23.886Z,99.90
2017-06-23T01:40:51.885Z,99.90
2017-06-23T01:43:20.313Z,99.90
2017-06-23T01:45:47.970Z,99.90
2017-06-23T01:48:15.647Z,99.90
2017-06-23T01:50:44.043Z,99.90
2017-06-23T01:53:11.764Z,99.90
2017-06-23T01:55:40.185Z,99.90
2017-06-23T01:58:08.230Z,99.90
2017-06-23T02:00:35.881Z,99.90
2017-06-23T02:03:03.532Z,99.90
2017-06-23T02:05:31.217Z,99.90
2017-06-23T02:07:59.631Z,99.90
2017-06-23T02:10:27.311Z,99.90
2017-06-23T02:12:54.953Z,99.90
2017-06-23T02:15:23.023Z,99.90
2017-06-23T02:17:51.445Z,99.90
2017-06-23T02:20:19.088Z,99.90
2017-06-23T02:22:46.763Z,99.90
2017-06-23T02:25:14.403Z,99.90
2017-06-23T02:27:42.089Z,99.90
2017-06-23T02:30:10.498Z,99.90
2017-06-23T02:32:38.418Z,99.90
2017-06-23T02:35:06.161Z,99.90
2017-06-23T02:37:34.570Z,99.90
2017-06-23T02:40:02.244Z,99.90
2017-06-23T02:42:29.875Z,99.90
2017-06-23T02:44:57.552Z,99.90
2017-06-23T02:47:25.960Z,99.90
2017-06-23T02:49:53.912Z,99.90
2017-06-23T02:52:21.535Z,99.90
2017-06-23T02:54:49.195Z,99.90
2017-06-23T02:57:16.864Z,99.90
2017-06-23T02:59:44.505Z,99.90
2017-06-23T03:02:12.168Z,99.90
2017-06-23T03:04:39.824Z,99.90
2017-06-23T03:07:07.747Z,99.90
2017-06-23T03:09:35.368Z,99.90
2017-06-23T03:12:03.014Z,99.90
2017-06-23T03:14:30.676Z,99.90
2017-06-23T03:16:58.311Z,99.90
2017-06-23T03:19:26.068Z,99.90
2017-06-23T03:21:53.707Z,99.90
2017-06-23T03:24:21.623Z,99.90
2017-06-23T03:26:49.268Z,99.90
2017-06-23T03:29:16.911Z,99.90
2017-06-23T03:31:44.588Z,99.90
2017-06-23T03:34:12.228Z,99.90
2017-06-23T03:36:40.681Z,99.90
2017-06-23T03:39:09.149Z,99.90
2017-06-23T03:41:37.163Z,99.90
2017-06-23T03:44:04.816Z,99.90
2017-06-23T03:46:32.473Z,99.90
2017-06-23T03:51:42.815Z,99.90
2017-06-23T03:54:10.494Z,99.90
2017-06-23T03:56:38.903Z,99.90
2017-06-23T03:59:06.854Z,99.90
2017-06-23T04:01:34.513Z,99.90
2017-06-23T04:04:02.172Z,99.90
2017-06-23T04:06:29.868Z,99.90
2017-06-23T04:08:57.503Z,99.90
2017-06-23T04:11:25.963Z,99.90
2017-06-23T04:13:55.124Z,99.90
2017-06-23T04:16:23.277Z,99.90
2017-06-23T04:18:50.923Z,99.90
2017-06-23T04:21:19.846Z,99.90
2017-06-23T04:23:47.511Z,99.90
2017-06-23T04:26:15.162Z,99.90
2017-06-23T04:28:42.886Z,99.90
2017-06-23T04:31:10.527Z,99.90
2017-06-23T04:33:39.302Z,99.90
2017-06-23T04:36:07.699Z,99.90
2017-06-23T04:38:35.352Z,99.90
2017-06-23T04:41:03.829Z,99.90
2017-06-23T04:43:31.481Z,99.90
2017-06-23T04:45:59.139Z,99.90
2017-06-23T04:48:26.770Z,99.90
2017-06-23T04:50:54.419Z,99.90
2017-06-23T04:53:22.112Z,99.90
2017-06-23T04:55:50.537Z,99.90
2017-06-23T04:58:18.216Z,99.90
2017-06-23T05:00:46.632Z,99.90
2017-06-23T05:03:14.657Z,99.90
2017-06-23T05:05:42.303Z,99.90
2017-06-23T05:08:09.950Z,99.90
2017-06-23T05:10:37.631Z,99.90
2017-06-23T05:13:05.461Z,99.90
2017-06-23T05:15:33.262Z,99.90
2017-06-23T05:18:01.672Z,99.90
2017-06-23T05:20:29.634Z,99.90
2017-06-23T05:22:57.303Z,99.90
2017-06-23T05:25:24.994Z,99.90
2017-06-23T05:27:53.436Z,99.90
2017-06-23T05:30:21.081Z,99.90
2017-06-23T05:32:48.748Z,99.90
2017-06-23T05:35:16.380Z,99.90
2017-06-23T05:37:44.306Z,99.90
2017-06-23T05:40:11.955Z,99.90
2017-06-23T05:42:39.617Z,97.00
2017-06-23T05:45:07.331Z,97.00
2017-06-23T05:47:34.987Z,97.10
2017-06-23T05:50:02.684Z,99.30
2017-06-23T05:52:31.103Z,96.90
2017-06-23T05:54:59.045Z,96.90
2017-06-23T05:57:26.697Z,99.00
2017-06-23T05:59:54.373Z,99.90
2017-06-23T06:02:22.039Z,95.90
2017-06-23T06:04:50.438Z,99.90
2017-06-23T06:07:18.103Z,99.90
2017-06-23T06:09:45.756Z,99.90
2017-06-23T06:12:13.700Z,99.90
2017-06-23T06:14:41.338Z,99.70
2017-06-23T06:17:08.971Z,99.60
2017-06-23T06:19:36.644Z,99.90
2017-06-23T06:22:04.282Z,99.90
2017-06-23T06:24:31.958Z,99.90
2017-06-23T06:26:59.590Z,97.40
2017-06-23T06:29:27.622Z,99.30
2017-06-23T06:31:55.268Z,99.90
2017-06-23T06:34:22.899Z,96.30
2017-06-23T06:36:50.571Z,99.90
2017-06-23T06:39:18.212Z,99.90
2017-06-23T06:41:45.880Z,99.90
2017-06-23T06:44:13.508Z,99.90
2017-06-23T06:46:41.498Z,99.70
2017-06-23T06:49:09.130Z,98.70
2017-06-23T06:51:38.162Z,97.80
2017-06-23T06:54:05.845Z,98.40
2017-06-23T06:56:33.500Z,99.80
2017-06-23T06:59:01.173Z,98.70
2017-06-23T07:01:28.806Z,99.00
2017-06-23T07:03:56.489Z,97.10
2017-06-23T07:06:24.891Z,99.60
2017-06-23T07:08:52.843Z,99.70
2017-06-23T07:11:20.535Z,99.50
2017-06-23T07:13:48.165Z,99.80
2017-06-23T07:16:15.836Z,93.20
2017-06-23T07:18:44.240Z,92.90
2017-06-23T07:21:11.913Z,93.00
2017-06-23T07:23:39.560Z,95.30
2017-06-23T07:26:07.195Z,94.50
2017-06-23T07:28:34.870Z,92.80
2017-06-23T07:31:02.494Z,94.10
2017-06-23T07:33:30.142Z,93.30
2017-06-23T07:35:57.812Z,92.90
2017-06-23T07:38:25.448Z,93.90
2017-06-23T07:40:53.078Z,95.20
2017-06-23T07:43:20.747Z,93.10
2017-06-23T07:45:48.383Z,91.40
2017-06-23T07:48:16.016Z,90.70
2017-06-23T07:50:43.678Z,91.80
2017-06-23T07:53:11.325Z,91.90
2017-06-23T07:55:38.968Z,89.20
2017-06-23T07:58:06.641Z,92.30
2017-06-23T08:00:34.288Z,86.20
2017-06-23T08:03:02.686Z,88.40
2017-06-23T08:05:30.668Z,87.70
2017-06-23T08:07:58.300Z,88.40
2017-06-23T08:10:25.939Z,84.70
2017-06-23T08:12:54.357Z,88.10
2017-06-23T08:15:21.990Z,88.00
2017-06-23T08:17:49.590Z,82.40
2017-06-23T08:20:18.274Z,89.80
2017-06-23T08:22:45.886Z,89.00
2017-06-23T08:25:13.495Z,83.90
2017-06-23T08:27:41.475Z,85.30
2017-06-23T08:30:09.870Z,85.90
2017-06-23T08:32:38.242Z,86.10
2017-06-23T08:35:06.660Z,88.50
2017-06-23T08:37:34.262Z,88.40
2017-06-23T08:40:02.638Z,85.50
2017-06-23T08:42:30.266Z,85.50
2017-06-23T08:44:57.870Z,86.80
2017-06-23T08:47:25.480Z,84.80
2017-06-23T08:49:53.308Z,84.20
2017-06-23T08:52:20.916Z,82.30
2017-06-23T08:54:49.324Z,81.30
2017-06-23T08:57:17.074Z,81.10
2017-06-23T08:59:44.687Z,87.20
2017-06-23T09:02:12.300Z,87.60
2017-06-23T09:04:40.212Z,86.00
2017-06-23T09:07:07.822Z,85.70
2017-06-23T09:09:35.431Z,86.20
2017-06-23T09:12:03.354Z,84.60
2017-06-23T09:14:30.980Z,88.70
2017-06-23T09:16:59.373Z,85.30
2017-06-23T09:19:27.328Z,85.20
2017-06-23T09:21:54.953Z,81.20
2017-06-23T09:24:22.558Z,78.70
2017-06-23T09:26:50.477Z,78.50
2017-06-23T09:29:18.088Z,81.40
2017-06-23T09:31:46.484Z,83.20
2017-06-23T09:34:14.453Z,82.70
2017-06-23T09:36:42.069Z,82.50
2017-06-23T09:39:09.681Z,78.20
2017-06-23T09:41:37.579Z,81.30
2017-06-23T09:44:05.205Z,76.80
2017-06-23T09:46:33.592Z,74.90
2017-06-23T09:49:01.486Z,74.80
2017-06-23T09:51:29.100Z,75.90
2017-06-23T09:53:56.715Z,77.10
2017-06-23T09:56:25.398Z,74.80
2017-06-23T09:58:53.038Z,74.70
2017-06-23T10:01:21.421Z,75.10
2017-06-23T10:03:49.411Z,75.00
2017-06-23T10:06:17.028Z,76.70
2017-06-23T10:08:44.659Z,71.00
2017-06-23T10:11:12.624Z,74.00
2017-06-23T10:13:40.227Z,71.40
2017-06-23T10:16:07.877Z,72.80
2017-06-23T10:18:35.962Z,74.10
2017-06-23T10:21:03.585Z,75.40
2017-06-23T10:23:31.957Z,75.90
2017-06-23T10:26:00.620Z,75.20
2017-06-23T10:28:29.013Z,70.60
2017-06-23T10:30:56.634Z,70.50
2017-06-23T10:33:24.628Z,68.80
2017-06-23T10:35:52.257Z,70.60
2017-06-23T10:38:19.872Z,73.10
2017-06-23T10:40:47.855Z,74.60
2017-06-23T10:43:15.465Z,73.30
2017-06-23T10:45:43.120Z,75.20
2017-06-23T10:48:11.815Z,69.10
2017-06-23T10:50:39.435Z,69.10
2017-06-23T10:53:07.046Z,70.30
2017-06-23T10:55:34.930Z,72.10
2017-06-23T10:58:02.533Z,74.30
2017-06-23T11:00:30.159Z,74.50
2017-06-23T11:02:58.840Z,70.20
2017-06-23T11:05:26.438Z,70.10
2017-06-23T11:07:54.060Z,72.80
2017-06-23T11:10:22.084Z,73.30
2017-06-23T11:12:49.695Z,66.70
2017-06-23T11:15:18.083Z,70.60
2017-06-23T11:17:46.051Z,70.00
2017-06-23T11:20:13.660Z,68.50
2017-06-23T11:22:42.035Z,66.60
2017-06-23T11:25:09.995Z,66.40
2017-06-23T11:27:37.607Z,64.10
2017-06-23T11:30:05.239Z,61.80
2017-06-23T11:32:33.240Z,62.70
2017-06-23T11:35:00.859Z,69.60
2017-06-23T11:37:28.494Z,66.60
2017-06-23T11:39:56.399Z,64.40
2017-06-23T11:42:24.022Z,56.40
2017-06-23T11:44:51.739Z,57.00
2017-06-23T11:47:19.726Z,55.60
2017-06-23T11:49:48.134Z,47.20
2017-06-23T11:52:15.748Z,47.20
2017-06-23T11:54:43.405Z,48.80
2017-06-23T11:57:11.041Z,50.60
2017-06-23T11:59:38.999Z,49.60
2017-06-23T12:02:06.600Z,48.60
2017-06-23T12:04:34.216Z,42.00
2017-06-23T12:07:01.854Z,42.20
2017-06-23T12:09:29.469Z,43.10
2017-06-23T12:11:57.451Z,43.30
2017-06-23T12:14:25.058Z,46.30
2017-06-23T12:16:53.449Z,50.60
2017-06-23T12:19:21.104Z,50.60
2017-06-23T12:21:48.715Z,52.80
2017-06-23T12:24:16.695Z,49.50
2017-06-23T12:26:44.295Z,46.80
2017-06-23T12:29:11.909Z,46.80
2017-06-23T12:31:39.542Z,52.70
2017-06-23T12:34:07.160Z,47.00
2017-06-23T12:36:35.850Z,48.90
2017-06-23T12:39:03.473Z,48.80
2017-06-23T12:41:31.085Z,46.60
2017-06-23T12:43:58.744Z,47.30
2017-06-23T12:46:26.345Z,49.70
2017-06-23T12:48:54.290Z,43.60
2017-06-23T12:51:21.891Z,44.30
2017-06-23T12:53:49.507Z,43.50
2017-06-23T12:56:17.146Z,48.70
2017-06-23T12:58:44.751Z,43.90
2017-06-23T13:01:13.431Z,44.60
2017-06-23T13:03:41.044Z,44.50
2017-06-23T13:06:08.655Z,39.70
2017-06-23T13:08:36.300Z,42.90
2017-06-23T13:11:03.908Z,38.40
2017-06-23T13:13:32.592Z,43.00
2017-06-23T13:16:00.200Z,42.50
2017-06-23T13:18:27.806Z,42.00
2017-06-23T13:20:55.483Z,39.50
2017-06-23T13:23:23.109Z,38.00
2017-06-23T13:25:51.043Z,39.00
2017-06-23T13:28:18.663Z,43.30
2017-06-23T13:30:46.270Z,41.90
2017-06-23T13:33:13.957Z,44.40
2017-06-23T13:35:42.332Z,44.40
2017-06-23T13:38:10.218Z,44.10
2017-06-23T13:40:37.828Z,41.50
2017-06-23T13:43:05.442Z,36.60
2017-06-23T13:45:33.086Z,39.30
2017-06-23T13:48:00.708Z,37.40
2017-06-23T13:50:28.620Z,37.00
2017-06-23T13:52:56.218Z,39.30
2017-06-23T13:55:23.832Z,37.90
2017-06-23T13:57:51.456Z,36.90
2017-06-23T14:00:19.064Z,35.80
2017-06-23T14:02:46.984Z,35.00
2017-06-23T14:05:14.591Z,34.80
2017-06-23T14:07:42.204Z,38.30
2017-06-23T14:10:09.849Z,33.70
2017-06-23T14:12:37.614Z,34.70
2017-06-23T14:15:06.292Z,34.70
2017-06-23T14:17:34.675Z,35.10
2017-06-23T14:20:02.277Z,35.00
2017-06-23T14:22:29.914Z,36.50
2017-06-23T14:24:57.554Z,37.80
2017-06-23T14:27:25.520Z,36.10
2017-06-23T14:29:53.167Z,38.80
2017-06-23T14:32:20.819Z,38.90
2017-06-23T14:34:48.475Z,39.70
2017-06-23T14:37:21.865Z,39.60
2017-06-23T14:39:50.562Z,35.90
2017-06-23T14:42:18.189Z,36.00
2017-06-23T14:44:47.356Z,39.90
2017-06-23T14:47:16.395Z,35.70
2017-06-23T14:49:44.752Z,35.70
2017-06-23T14:52:12.759Z,34.40
2017-06-23T14:54:41.155Z,34.50
2017-06-23T14:57:08.798Z,34.50
2017-06-23T14:59:36.481Z,33.30
2017-06-23T15:02:04.101Z,31.00
2017-06-23T15:04:32.015Z,35.10
2017-06-23T15:06:59.683Z,34.20
2017-06-23T15:09:28.055Z,35.80
2017-06-23T15:11:55.749Z,35.70
2017-06-23T15:14:23.354Z,34.50
2017-06-23T15:16:51.264Z,33.00
2017-06-23T15:19:18.871Z,35.00
2017-06-23T15:21:46.470Z,34.70
2017-06-23T15:24:14.877Z,34.30
2017-06-23T15:26:42.534Z,34.10
2017-06-23T15:29:10.561Z,36.40
2017-06-23T15:31:38.179Z,34.30
2017-06-23T15:34:06.548Z,35.30
2017-06-23T15:36:34.604Z,35.30
2017-06-23T15:39:03.017Z,32.10
2017-06-23T15:41:30.928Z,32.00
2017-06-23T15:43:58.539Z,33.80
2017-06-23T15:46:26.151Z,32.30
2017-06-23T15:48:53.834Z,33.10
2017-06-23T15:51:21.443Z,32.60
2017-06-23T15:53:49.386Z,31.40
2017-06-23T15:56:16.996Z,32.60
2017-06-23T15:58:45.377Z,33.80
2017-06-23T16:01:13.788Z,34.30
2017-06-23T16:03:41.437Z,34.20
2017-06-23T16:06:09.333Z,33.80
2017-06-23T16:08:37.714Z,32.00
2017-06-23T16:11:05.319Z,32.00
2017-06-23T16:13:32.969Z,32.00
2017-06-23T16:16:00.586Z,32.80
2017-06-23T16:18:28.502Z,33.10
2017-06-23T16:20:56.202Z,34.40
2017-06-23T16:23:23.812Z,35.00
2017-06-23T16:25:51.454Z,36.30
2017-06-23T16:28:19.074Z,35.80
2017-06-23T16:30:47.827Z,35.50
2017-06-23T16:33:15.451Z,35.50
2017-06-23T16:35:43.074Z,37.90
2017-06-23T16:38:11.061Z,37.70
2017-06-23T16:40:38.691Z,39.00
2017-06-23T16:43:06.634Z,38.60
2017-06-23T16:45:34.247Z,37.00
2017-06-23T16:48:01.928Z,40.40
2017-06-23T16:50:29.646Z,40.30
2017-06-23T16:52:57.267Z,39.00
2017-06-23T16:55:29.015Z,40.40
2017-06-23T16:57:57.412Z,39.70
2017-06-23T17:00:25.107Z,39.70
2017-06-23T17:02:52.825Z,39.30
2017-06-23T17:05:20.538Z,40.40
2017-06-23T17:07:48.534Z,39.90
2017-06-23T17:10:16.159Z,37.70
2017-06-23T17:12:43.794Z,41.20
2017-06-23T17:15:11.454Z,37.20
2017-06-23T17:17:39.072Z,37.90
2017-06-23T17:20:07.762Z,39.60
2017-06-23T17:22:35.397Z,39.60
2017-06-23T17:25:03.046Z,38.80
2017-06-23T17:27:30.705Z,38.00
2017-06-23T17:29:58.311Z,40.10
2017-06-23T17:32:27.061Z,37.90
2017-06-23T17:34:54.679Z,37.90
2017-06-23T17:37:22.308Z,40.60
2017-06-23T17:39:49.969Z,39.20
2017-06-23T17:42:17.584Z,39.80
2017-06-23T17:44:45.486Z,39.90
2017-06-23T17:47:13.107Z,41.30
2017-06-23T17:49:40.727Z,41.70
2017-06-23T17:52:08.376Z,43.30
2017-06-23T17:54:35.992Z,40.60
2017-06-23T17:57:03.938Z,43.30
2017-06-23T17:59:31.553Z,42.50
2017-06-23T18:01:59.214Z,40.70
2017-06-23T18:04:26.873Z,43.80
2017-06-23T18:06:54.490Z,42.30
2017-06-23T18:09:22.549Z,44.10
2017-06-23T18:11:50.167Z,42.50
2017-06-23T18:14:18.591Z,45.90
2017-06-23T18:16:46.240Z,45.10
2017-06-23T18:19:13.851Z,43.60
2017-06-23T18:21:41.804Z,43.80
2017-06-23T18:24:09.416Z,44.00
2017-06-23T18:26:37.833Z,46.10
2017-06-23T18:29:09.189Z,46.10
2017-06-23T18:31:36.842Z,47.40
2017-06-23T18:34:05.119Z,47.20
2017-06-23T18:36:32.844Z,45.70
2017-06-23T18:39:00.892Z,48.40
2017-06-23T18:41:28.552Z,50.40
2017-06-23T18:43:56.180Z,48.90
2017-06-23T18:46:24.101Z,51.00
2017-06-23T18:48:51.720Z,49.30
2017-06-23T18:51:20.187Z,55.50
2017-06-23T18:53:47.842Z,55.50
2017-06-23T18:56:15.458Z,57.20
2017-06-23T18:58:43.578Z,57.30
2017-06-23T19:01:11.202Z,57.40
2017-06-23T19:03:38.823Z,56.90
2017-06-23T19:06:06.481Z,57.30
2017-06-23T19:08:34.124Z,59.50
2017-06-23T19:11:02.096Z,59.80
2017-06-23T19:13:29.707Z,61.20
2017-06-23T19:15:58.128Z,60.70
2017-06-23T19:18:25.796Z,60.70
2017-06-23T19:20:53.432Z,61.00
2017-06-23T19:23:21.505Z,63.40
2017-06-23T19:25:49.205Z,65.80
2017-06-23T19:28:17.656Z,65.80
2017-06-23T19:30:45.308Z,65.70
2017-06-23T19:33:12.910Z,64.80
2017-06-23T19:35:40.928Z,66.60
2017-06-23T19:38:08.557Z,67.00
2017-06-23T19:40:36.180Z,65.50
2017-06-23T19:43:04.582Z,67.50
2017-06-23T19:45:32.206Z,67.40
2017-06-23T19:48:00.236Z,69.20
2017-06-23T19:50:27.856Z,69.60
2017-06-23T19:52:55.510Z,70.20
2017-06-23T19:55:23.168Z,73.20
2017-06-23T19:57:50.790Z,72.20
2017-06-23T20:00:18.711Z,72.70
2017-06-23T20:02:46.333Z,72.10
2017-06-23T20:05:14.787Z,73.60
2017-06-23T20:07:42.466Z,73.50
2017-06-23T20:10:10.132Z,74.30
2017-06-23T20:12:38.181Z,73.60
2017-06-23T20:15:05.803Z,73.50
2017-06-23T20:17:33.417Z,75.40
2017-06-23T20:20:01.068Z,74.40
2017-06-23T20:22:28.723Z,72.90
2017-06-23T20:24:56.669Z,71.80
2017-06-23T20:27:24.416Z,73.40
2017-06-23T20:29:52.116Z,74.00
2017-06-23T20:32:19.798Z,75.30
2017-06-23T20:34:47.414Z,74.50
2017-06-23T20:37:15.412Z,74.30
2017-06-23T20:39:43.057Z,73.80
2017-06-23T20:42:10.792Z,72.90
2017-06-23T20:44:39.267Z,76.20
2017-06-23T20:47:07.682Z,75.20
2017-06-23T20:49:35.679Z,75.20
2017-06-23T20:52:04.077Z,76.60
2017-06-23T20:54:31.711Z,77.20
2017-06-23T20:56:59.539Z,77.60
2017-06-23T20:59:28.228Z,76.80
2017-06-23T21:01:56.277Z,77.30
2017-06-23T21:04:24.733Z,80.00
2017-06-23T21:06:53.146Z,81.70
2017-06-23T21:09:21.706Z,81.20
2017-06-23T21:11:50.311Z,81.60
2017-06-23T21:14:18.345Z,81.20
2017-06-23T21:16:46.086Z,81.90
2017-06-23T21:19:13.716Z,83.70
2017-06-23T21:21:43.058Z,84.50
2017-06-23T21:24:10.699Z,85.90
2017-06-23T21:26:39.525Z,85.10
2017-06-23T21:29:07.592Z,84.80
2017-06-23T21:31:36.013Z,86.20
2017-06-23T21:34:04.457Z,86.60
2017-06-23T21:36:32.967Z,86.50
2017-06-23T21:39:00.932Z,87.70
2017-06-23T21:41:40.457Z,87.60
2017-06-23T21:44:08.560Z,87.70
2017-06-23T21:46:36.202Z,87.40
2017-06-23T21:49:03.851Z,88.20
2017-06-23T21:51:31.519Z,88.60
2017-06-23T21:53:59.187Z,87.90
2017-06-23T21:56:27.186Z,88.00
2017-06-23T21:58:54.973Z,87.10
2017-06-23T22:01:23.398Z,87.50
2017-06-23T22:03:51.072Z,86.70
2017-06-23T22:06:18.725Z,87.00
2017-06-23T22:08:46.769Z,87.10
2017-06-23T22:11:14.445Z,88.90
2017-06-23T22:13:42.910Z,88.70
2017-06-23T22:16:11.359Z,88.80
2017-06-23T22:18:39.039Z,88.80
2017-06-23T22:21:07.094Z,88.70
2017-06-23T22:23:34.737Z,88.60
2017-06-23T22:26:02.370Z,89.30
2017-06-23T22:28:30.047Z,88.80
2017-06-23T22:30:57.754Z,89.90
2017-06-23T22:33:26.480Z,90.10
2017-06-23T22:35:54.357Z,89.40
2017-06-23T22:38:22.002Z,89.60
2017-06-23T22:40:49.663Z,88.80
2017-06-23T22:43:17.306Z,89.80
2017-06-23T22:45:45.440Z,89.80
2017-06-23T22:48:13.079Z,89.00
2017-06-23T22:50:40.728Z,88.60
2017-06-23T22:53:08.405Z,88.70
2017-06-23T22:55:36.051Z,88.40
2017-06-23T22:58:04.072Z,89.80
2017-06-23T23:00:31.718Z,89.60
2017-06-23T23:02:59.361Z,89.40
2017-06-23T23:05:27.035Z,90.40
2017-06-23T23:07:54.663Z,90.60
2017-06-23T23:10:22.615Z,90.00
2017-06-23T23:12:50.263Z,90.80
2017-06-23T23:15:17.910Z,90.80
2017-06-23T23:17:45.586Z,91.20
2017-06-23T23:20:13.221Z,91.70
2017-06-23T23:22:41.303Z,92.80
2017-06-23T23:25:09.714Z,94.30
2017-06-23T23:27:37.342Z,94.20
2017-06-23T23:30:05.011Z,94.90
2017-06-23T23:32:33.627Z,94.30
2017-06-23T23:35:02.335Z,94.20
2017-06-23T23:37:29.967Z,94.20
2017-06-23T23:39:57.614Z,94.50
2017-06-23T23:42:25.303Z,91.90
2017-06-23T23:44:53.103Z,93.50
2017-06-23T23:47:21.799Z,94.10
2017-06-23T23:49:49.435Z,94.00
2017-06-23T23:52:17.070Z,94.00
2017-06-23T23:54:44.744Z,94.90
2017-06-23T23:57:12.387Z,93.90
2017-06-23T23:59:40.359Z,95.40
